sensor_id;sensor_type;location;lat;lon;timestamp;P1;durP1;ratioP1;P2;durP2;ratioP2
51692;SDS011;37777;53.066;21.638;2023-03-23T00:06:35;35.30;;;16.48;;
51692;SDS011;37777;53.066;21.638;2023-03-23T00:13:37;31.23;;;15.57;;
51692;SDS011;37777;53.066;21.638;2023-03-23T00:20:38;30.02;;;15.63;;
51692;SDS011;37777;53.066;21.638;2023-03-23T00:27:39;34.15;;;15.55;;
51692;SDS011;37777;53.066;21.638;2023-03-23T00:34:40;36.40;;;16.33;;
51692;SDS011;37777;53.066;21.638;2023-03-23T00:41:44;35.90;;;16.63;;
51692;SDS011;37777;53.066;21.638;2023-03-23T00:48:47;32.33;;;15.85;;
51692;SDS011;37777;53.066;21.638;2023-03-23T00:55:48;31.25;;;16.17;;
51692;SDS011;37777;53.066;21.638;2023-03-23T01:02:49;32.38;;;16.15;;
51692;SDS011;37777;53.066;21.638;2023-03-23T01:09:51;33.92;;;16.65;;
51692;SDS011;37777;53.066;21.638;2023-03-23T01:16:53;37.88;;;16.48;;
51692;SDS011;37777;53.066;21.638;2023-03-23T01:23:54;34.70;;;16.20;;
51692;SDS011;37777;53.066;21.638;2023-03-23T01:30:59;37.33;;;16.65;;
51692;SDS011;37777;53.066;21.638;2023-03-23T01:38:04;31.73;;;17.13;;
51692;SDS011;37777;53.066;21.638;2023-03-23T01:52:29;35.78;;;16.23;;
51692;SDS011;37777;53.066;21.638;2023-03-23T01:59:30;30.13;;;16.30;;
51692;SDS011;37777;53.066;21.638;2023-03-23T02:06:32;30.30;;;16.48;;
51692;SDS011;37777;53.066;21.638;2023-03-23T02:13:33;32.10;;;16.13;;
51692;SDS011;37777;53.066;21.638;2023-03-23T02:35:34;32.95;;;16.10;;
51692;SDS011;37777;53.066;21.638;2023-03-23T02:42:38;38.72;;;15.82;;
51692;SDS011;37777;53.066;21.638;2023-03-23T02:49:42;33.13;;;16.33;;
51692;SDS011;37777;53.066;21.638;2023-03-23T02:56:44;28.33;;;14.40;;
51692;SDS011;37777;53.066;21.638;2023-03-23T03:03:46;26.80;;;15.05;;
51692;SDS011;37777;53.066;21.638;2023-03-23T03:10:49;31.95;;;15.85;;
51692;SDS011;37777;53.066;21.638;2023-03-23T03:18:03;32.90;;;14.68;;
51692;SDS011;37777;53.066;21.638;2023-03-23T03:25:12;28.85;;;14.77;;
51692;SDS011;37777;53.066;21.638;2023-03-23T03:32:14;30.48;;;15.68;;
51692;SDS011;37777;53.066;21.638;2023-03-23T03:39:19;31.55;;;14.52;;
51692;SDS011;37777;53.066;21.638;2023-03-23T03:46:21;29.45;;;14.82;;
51692;SDS011;37777;53.066;21.638;2023-03-23T03:53:22;32.05;;;15.98;;
51692;SDS011;37777;53.066;21.638;2023-03-23T04:00:24;29.52;;;16.45;;
51692;SDS011;37777;53.066;21.638;2023-03-23T04:07:25;32.20;;;16.17;;
51692;SDS011;37777;53.066;21.638;2023-03-23T04:14:26;32.90;;;15.77;;
51692;SDS011;37777;53.066;21.638;2023-03-23T04:21:27;34.05;;;16.52;;
51692;SDS011;37777;53.066;21.638;2023-03-23T04:28:30;35.13;;;16.63;;
51692;SDS011;37777;53.066;21.638;2023-03-23T04:35:33;31.58;;;16.08;;
51692;SDS011;37777;53.066;21.638;2023-03-23T04:42:34;37.40;;;16.90;;
51692;SDS011;37777;53.066;21.638;2023-03-23T04:49:35;40.65;;;17.63;;
51692;SDS011;37777;53.066;21.638;2023-03-23T04:56:36;40.72;;;18.38;;
51692;SDS011;37777;53.066;21.638;2023-03-23T05:03:37;40.72;;;16.73;;
51692;SDS011;37777;53.066;21.638;2023-03-23T05:10:38;32.67;;;16.70;;
51692;SDS011;37777;53.066;21.638;2023-03-23T05:17:39;41.67;;;18.33;;
51692;SDS011;37777;53.066;21.638;2023-03-23T05:24:43;38.20;;;17.23;;
51692;SDS011;37777;53.066;21.638;2023-03-23T05:31:44;40.53;;;18.52;;
51692;SDS011;37777;53.066;21.638;2023-03-23T05:38:46;44.65;;;20.27;;
51692;SDS011;37777;53.066;21.638;2023-03-23T05:45:48;40.90;;;19.20;;
51692;SDS011;37777;53.066;21.638;2023-03-23T05:52:49;34.20;;;15.98;;
51692;SDS011;37777;53.066;21.638;2023-03-23T05:59:51;34.20;;;18.17;;
51692;SDS011;37777;53.066;21.638;2023-03-23T06:06:52;38.83;;;18.77;;
51692;SDS011;37777;53.066;21.638;2023-03-23T06:13:53;43.55;;;20.02;;
51692;SDS011;37777;53.066;21.638;2023-03-23T06:20:54;35.03;;;17.75;;
51692;SDS011;37777;53.066;21.638;2023-03-23T06:27:55;38.72;;;19.15;;
51692;SDS011;37777;53.066;21.638;2023-03-23T06:34:56;16.05;;;7.65;;
51692;SDS011;37777;53.066;21.638;2023-03-23T06:41:57;31.90;;;13.85;;
51692;SDS011;37777;53.066;21.638;2023-03-23T06:48:59;24.35;;;13.57;;
51692;SDS011;37777;53.066;21.638;2023-03-23T06:56:00;27.67;;;14.38;;
51692;SDS011;37777;53.066;21.638;2023-03-23T07:03:01;17.48;;;9.65;;
51692;SDS011;37777;53.066;21.638;2023-03-23T07:10:03;29.95;;;14.32;;
51692;SDS011;37777;53.066;21.638;2023-03-23T07:17:05;33.53;;;17.38;;
51692;SDS011;37777;53.066;21.638;2023-03-23T07:24:11;32.72;;;15.35;;
51692;SDS011;37777;53.066;21.638;2023-03-23T07:31:16;26.10;;;14.67;;
51692;SDS011;37777;53.066;21.638;2023-03-23T07:38:17;28.90;;;13.90;;
51692;SDS011;37777;53.066;21.638;2023-03-23T07:45:18;26.58;;;13.65;;
51692;SDS011;37777;53.066;21.638;2023-03-23T07:52:20;22.95;;;11.05;;
51692;SDS011;37777;53.066;21.638;2023-03-23T07:59:22;21.25;;;10.07;;
51692;SDS011;37777;53.066;21.638;2023-03-23T08:06:23;20.58;;;9.55;;
51692;SDS011;37777;53.066;21.638;2023-03-23T08:13:25;18.08;;;10.90;;
51692;SDS011;37777;53.066;21.638;2023-03-23T08:20:25;16.80;;;10.85;;
51692;SDS011;37777;53.066;21.638;2023-03-23T08:27:26;20.58;;;10.43;;
51692;SDS011;37777;53.066;21.638;2023-03-23T08:34:27;18.90;;;9.23;;
51692;SDS011;37777;53.066;21.638;2023-03-23T08:41:27;15.82;;;8.93;;
51692;SDS011;37777;53.066;21.638;2023-03-23T08:48:28;14.15;;;8.93;;
51692;SDS011;37777;53.066;21.638;2023-03-23T08:55:29;14.20;;;7.15;;
51692;SDS011;37777;53.066;21.638;2023-03-23T09:02:30;8.57;;;6.03;;
51692;SDS011;37777;53.066;21.638;2023-03-23T09:09:32;15.90;;;6.57;;
51692;SDS011;37777;53.066;21.638;2023-03-23T09:16:34;10.70;;;6.18;;
51692;SDS011;37777;53.066;21.638;2023-03-23T09:23:35;10.13;;;5.78;;
51692;SDS011;37777;53.066;21.638;2023-03-23T09:30:36;6.68;;;3.28;;
51692;SDS011;37777;53.066;21.638;2023-03-23T09:37:39;16.02;;;5.53;;
51692;SDS011;37777;53.066;21.638;2023-03-23T09:51:51;7.10;;;3.97;;
51692;SDS011;37777;53.066;21.638;2023-03-23T09:58:57;6.17;;;4.10;;
51692;SDS011;37777;53.066;21.638;2023-03-23T10:06:19;7.07;;;2.97;;
51692;SDS011;37777;53.066;21.638;2023-03-23T10:20:58;4.00;;;2.78;;
51692;SDS011;37777;53.066;21.638;2023-03-23T10:28:05;6.68;;;3.35;;
51692;SDS011;37777;53.066;21.638;2023-03-23T10:35:12;3.75;;;3.17;;
51692;SDS011;37777;53.066;21.638;2023-03-23T10:42:22;4.22;;;2.92;;
51692;SDS011;37777;53.066;21.638;2023-03-23T10:56:36;7.00;;;3.15;;
51692;SDS011;37777;53.066;21.638;2023-03-23T11:03:43;5.25;;;2.90;;
51692;SDS011;37777;53.066;21.638;2023-03-23T11:10:50;3.35;;;2.17;;
51692;SDS011;37777;53.066;21.638;2023-03-23T11:17:56;4.10;;;2.25;;
51692;SDS011;37777;53.066;21.638;2023-03-23T11:25:05;4.85;;;3.25;;
51692;SDS011;37777;53.066;21.638;2023-03-23T11:32:06;5.22;;;3.38;;
51692;SDS011;37777;53.066;21.638;2023-03-23T11:39:25;6.05;;;2.80;;
51692;SDS011;37777;53.066;21.638;2023-03-23T11:46:42;2.45;;;1.88;;
51692;SDS011;37777;53.066;21.638;2023-03-23T12:01:29;4.70;;;2.50;;
51692;SDS011;37777;53.066;21.638;2023-03-23T12:23:02;5.22;;;3.17;;
51692;SDS011;37777;53.066;21.638;2023-03-23T12:45:00;4.22;;;2.35;;
51692;SDS011;37777;53.066;21.638;2023-03-23T12:59:19;2.58;;;2.30;;
51692;SDS011;37777;53.066;21.638;2023-03-23T13:06:31;2.83;;;2.63;;
51692;SDS011;37777;53.066;21.638;2023-03-23T13:13:43;3.55;;;2.72;;
51692;SDS011;37777;53.066;21.638;2023-03-23T13:20:53;1.85;;;1.75;;
51692;SDS011;37777;53.066;21.638;2023-03-23T13:28:15;7.60;;;3.47;;
51692;SDS011;37777;53.066;21.638;2023-03-23T13:35:32;2.90;;;2.70;;
51692;SDS011;37777;53.066;21.638;2023-03-23T13:42:38;5.97;;;3.28;;
51692;SDS011;37777;53.066;21.638;2023-03-23T13:56:59;3.47;;;2.55;;
51692;SDS011;37777;53.066;21.638;2023-03-23T14:04:04;4.63;;;2.88;;
51692;SDS011;37777;53.066;21.638;2023-03-23T14:11:11;6.45;;;3.85;;
51692;SDS011;37777;53.066;21.638;2023-03-23T14:18:37;3.30;;;2.75;;
51692;SDS011;37777;53.066;21.638;2023-03-23T14:25:39;6.60;;;3.65;;
51692;SDS011;37777;53.066;21.638;2023-03-23T14:32:40;4.68;;;3.30;;
51692;SDS011;37777;53.066;21.638;2023-03-23T14:39:44;4.68;;;3.10;;
51692;SDS011;37777;53.066;21.638;2023-03-23T14:46:46;6.35;;;2.95;;
51692;SDS011;37777;53.066;21.638;2023-03-23T14:53:48;6.57;;;3.25;;
51692;SDS011;37777;53.066;21.638;2023-03-23T15:07:59;5.13;;;3.05;;
51692;SDS011;37777;53.066;21.638;2023-03-23T15:15:04;5.47;;;3.25;;
51692;SDS011;37777;53.066;21.638;2023-03-23T15:22:19;9.65;;;4.38;;
51692;SDS011;37777;53.066;21.638;2023-03-23T15:29:31;6.47;;;4.07;;
51692;SDS011;37777;53.066;21.638;2023-03-23T15:36:33;11.85;;;5.40;;
51692;SDS011;37777;53.066;21.638;2023-03-23T15:43:52;18.92;;;6.82;;
51692;SDS011;37777;53.066;21.638;2023-03-23T15:50:57;8.68;;;4.95;;
51692;SDS011;37777;53.066;21.638;2023-03-23T15:57:59;9.20;;;5.78;;
51692;SDS011;37777;53.066;21.638;2023-03-23T16:05:01;8.60;;;4.65;;
51692;SDS011;37777;53.066;21.638;2023-03-23T16:12:04;16.23;;;7.68;;
51692;SDS011;37777;53.066;21.638;2023-03-23T16:19:07;8.02;;;5.88;;
51692;SDS011;37777;53.066;21.638;2023-03-23T16:26:13;17.48;;;7.82;;
51692;SDS011;37777;53.066;21.638;2023-03-23T16:33:16;14.32;;;7.03;;
51692;SDS011;37777;53.066;21.638;2023-03-23T16:40:18;14.93;;;6.57;;
51692;SDS011;37777;53.066;21.638;2023-03-23T16:47:21;27.35;;;10.73;;
51692;SDS011;37777;53.066;21.638;2023-03-23T16:54:26;56.35;;;22.85;;
51692;SDS011;37777;53.066;21.638;2023-03-23T17:01:28;37.38;;;16.00;;
51692;SDS011;37777;53.066;21.638;2023-03-23T17:08:30;20.73;;;10.73;;
51692;SDS011;37777;53.066;21.638;2023-03-23T17:15:35;32.42;;;14.70;;
51692;SDS011;37777;53.066;21.638;2023-03-23T17:22:38;29.55;;;14.18;;
51692;SDS011;37777;53.066;21.638;2023-03-23T17:29:41;23.40;;;11.75;;
51692;SDS011;37777;53.066;21.638;2023-03-23T17:36:44;20.55;;;11.00;;
51692;SDS011;37777;53.066;21.638;2023-03-23T17:43:47;29.70;;;12.30;;
51692;SDS011;37777;53.066;21.638;2023-03-23T17:50:53;31.25;;;12.82;;
51692;SDS011;37777;53.066;21.638;2023-03-23T17:57:58;21.45;;;10.52;;
51692;SDS011;37777;53.066;21.638;2023-03-23T18:05:04;16.70;;;9.35;;
51692;SDS011;37777;53.066;21.638;2023-03-23T18:12:07;20.83;;;10.10;;
51692;SDS011;37777;53.066;21.638;2023-03-23T18:19:11;11.40;;;7.47;;
51692;SDS011;37777;53.066;21.638;2023-03-23T18:26:14;19.65;;;9.40;;
51692;SDS011;37777;53.066;21.638;2023-03-23T18:33:17;11.75;;;7.00;;
51692;SDS011;37777;53.066;21.638;2023-03-23T18:40:21;13.55;;;7.07;;
51692;SDS011;37777;53.066;21.638;2023-03-23T18:47:24;10.90;;;5.88;;
51692;SDS011;37777;53.066;21.638;2023-03-23T18:54:28;13.43;;;6.53;;
51692;SDS011;37777;53.066;21.638;2023-03-23T19:01:35;12.38;;;7.18;;
51692;SDS011;37777;53.066;21.638;2023-03-23T19:08:39;14.02;;;7.55;;
51692;SDS011;37777;53.066;21.638;2023-03-23T19:15:45;11.77;;;6.72;;
51692;SDS011;37777;53.066;21.638;2023-03-23T19:22:48;10.48;;;6.40;;
51692;SDS011;37777;53.066;21.638;2023-03-23T19:29:53;13.15;;;6.90;;
51692;SDS011;37777;53.066;21.638;2023-03-23T19:36:56;9.57;;;5.47;;
51692;SDS011;37777;53.066;21.638;2023-03-23T19:44:07;12.30;;;5.55;;
51692;SDS011;37777;53.066;21.638;2023-03-23T19:51:10;12.70;;;6.60;;
51692;SDS011;37777;53.066;21.638;2023-03-23T19:58:13;9.88;;;5.63;;
51692;SDS011;37777;53.066;21.638;2023-03-23T20:05:18;12.63;;;6.78;;
51692;SDS011;37777;53.066;21.638;2023-03-23T20:12:28;13.73;;;6.47;;
51692;SDS011;37777;53.066;21.638;2023-03-23T20:19:32;10.73;;;6.00;;
51692;SDS011;37777;53.066;21.638;2023-03-23T20:26:39;11.45;;;6.57;;
51692;SDS011;37777;53.066;21.638;2023-03-23T20:33:43;12.05;;;6.03;;
51692;SDS011;37777;53.066;21.638;2023-03-23T20:40:46;10.98;;;7.47;;
51692;SDS011;37777;53.066;21.638;2023-03-23T20:47:50;18.50;;;7.28;;
51692;SDS011;37777;53.066;21.638;2023-03-23T20:54:55;11.65;;;7.18;;
51692;SDS011;37777;53.066;21.638;2023-03-23T21:01:57;16.60;;;7.53;;
51692;SDS011;37777;53.066;21.638;2023-03-23T21:09:02;17.67;;;8.18;;
51692;SDS011;37777;53.066;21.638;2023-03-23T21:16:05;15.25;;;8.43;;
51692;SDS011;37777;53.066;21.638;2023-03-23T21:23:09;12.43;;;7.70;;
51692;SDS011;37777;53.066;21.638;2023-03-23T21:30:16;17.98;;;8.65;;
51692;SDS011;37777;53.066;21.638;2023-03-23T21:37:19;14.25;;;8.45;;
51692;SDS011;37777;53.066;21.638;2023-03-23T21:44:21;16.17;;;8.75;;
51692;SDS011;37777;53.066;21.638;2023-03-23T21:51:25;15.63;;;8.25;;
51692;SDS011;37777;53.066;21.638;2023-03-23T21:58:30;10.38;;;7.03;;
51692;SDS011;37777;53.066;21.638;2023-03-23T22:05:32;13.68;;;8.70;;
51692;SDS011;37777;53.066;21.638;2023-03-23T22:12:35;14.98;;;8.63;;
51692;SDS011;37777;53.066;21.638;2023-03-23T22:19:38;18.58;;;10.20;;
51692;SDS011;37777;53.066;21.638;2023-03-23T22:26:42;17.48;;;9.30;;
51692;SDS011;37777;53.066;21.638;2023-03-23T22:33:44;14.48;;;8.68;;
51692;SDS011;37777;53.066;21.638;2023-03-23T22:40:55;18.75;;;9.07;;
51692;SDS011;37777;53.066;21.638;2023-03-23T22:47:57;14.40;;;8.88;;
51692;SDS011;37777;53.066;21.638;2023-03-23T22:55:00;12.75;;;7.70;;
51692;SDS011;37777;53.066;21.638;2023-03-23T23:02:02;20.80;;;9.50;;
51692;SDS011;37777;53.066;21.638;2023-03-23T23:09:04;16.83;;;8.60;;
51692;SDS011;37777;53.066;21.638;2023-03-23T23:16:07;12.70;;;7.97;;
51692;SDS011;37777;53.066;21.638;2023-03-23T23:23:10;15.73;;;7.97;;
51692;SDS011;37777;53.066;21.638;2023-03-23T23:30:12;10.93;;;7.50;;
51692;SDS011;37777;53.066;21.638;2023-03-23T23:37:14;12.18;;;8.02;;
51692;SDS011;37777;53.066;21.638;2023-03-23T23:44:16;9.73;;;7.38;;
51692;SDS011;37777;53.066;21.638;2023-03-23T23:51:18;12.95;;;7.45;;
51692;SDS011;37777;53.066;21.638;2023-03-23T23:58:20;12.85;;;8.05;;
